British Ensign — MMER9 — position and weather

sailwx.info

Track history (hours):
 
Tides and Currents Weather Stations Pressure Air Temp Water Temp Dewpoint Dewpoint Depression Visibility Wind Speed Wind Dir Waves Ship Positions

British Ensign

Last reported at 2016-May-01 20:31 UTC. Time now 2016-May-01 21:19 UTC.
Position N 52°26' E 003°60'.

Length 184.2 m; beam 27.4 m; draft 11.3 m.

Type: Tanker. MMSI: 235010980.

Date/timePositionNaut miles runAvg speedWind from/ knotsBaromVisibWave heightAir tempDewpointWater temp
2016-May-01 20:31N 52°26' E 003°60'0 0.2
2016-May-01 19:31N 52°26' E 003°60'0 0.0
2016-May-01 18:28N 52°26' E 003°60'0 0.0
2016-May-01 17:31N 52°26' E 003°60'0 0.0
2016-May-01 16:31N 52°26' E 003°60'0 0.0
2016-May-01 15:31N 52°26' E 003°60'0 0.0
2016-May-01 14:31N 52°26' E 003°60'0 0.1
2016-May-01 13:19N 52°26' E 003°60'0 0.1
2016-May-01 12:31N 52°26' E 003°60'0 0.1
2016-May-01 11:31N 52°26' E 003°60'0 0.0
2016-May-01 10:28N 52°26' E 003°60'0 0.0
2016-May-01 09:31N 52°26' E 003°60'0 0.0
2016-May-01 08:31N 52°26' E 003°60'0 0.1
2016-May-01 07:31N 52°26' E 003°60'1 1.3
2016-May-01 06:33N 52°26' E 003°58'9 9.5
2016-May-01 05:33N 52°25' E 003°42'1610.8
2016-May-01 04:05N 52°16' E 003°20'5010.2
2016-Apr-30 23:12N 51°39' E 002°27'912.2
2016-Apr-30 22:28N 51°33' E 002°17'1213.5
2016-Apr-30 21:33N 51°21' E 002°09'1413.5
2016-Apr-30 20:33N 51°11' E 001°55'1414.4
2016-Apr-30 19:33N 51°02' E 001°37'1514.6
2016-Apr-30 18:31N 50°49' E 001°25'4213.5
2016-Apr-30 15:26N 50°25' E 000°32'1314.8
2016-Apr-30 14:33N 50°21' E 000°12'1514.9
2016-Apr-30 13:33N 50°18' W 000°11'1615.0
2016-Apr-30 12:29N 50°13' W 000°35'8913.7
2016-Apr-30 06:00N 49°48' W 002°48'2 4.3 070 / 111020.9 5.4 8.0 1.9
2016-Apr-30 05:33N 49°50' W 002°47'1412.3
2016-Apr-30 04:26N 49°46' W 003°07'1112.6
2016-Apr-30 03:33N 49°43' W 003°23'8313.2
2016-Apr-29 21:15N 48°56' W 005°10'1013.9
2016-Apr-29 20:33N 48°51' W 005°23'  
Track history (hours):
 
Tides and Currents Weather Stations Pressure Air Temp Water Temp Dewpoint Dewpoint Depression Visibility Wind Speed Wind Dir Waves Ship Positions

British Ensign

Last reported at 2016-May-01 20:31 UTC. Time now 2016-May-01 21:19 UTC.
Position N 52°26' E 003°60'.

Length 184.2 m; beam 27.4 m; draft 11.3 m.

Type: Tanker. MMSI: 235010980.

Date/timePositionNaut miles runAvg speedWind from/ knotsBaromVisibWave heightAir tempDewpointWater temp
2016-May-01 20:31N 52°26' E 003°60'0 0.2
2016-May-01 19:31N 52°26' E 003°60'0 0.0
2016-May-01 18:28N 52°26' E 003°60'0 0.0
2016-May-01 17:31N 52°26' E 003°60'0 0.0
2016-May-01 16:31N 52°26' E 003°60'0 0.0
2016-May-01 15:31N 52°26' E 003°60'0 0.0
2016-May-01 14:31N 52°26' E 003°60'0 0.1
2016-May-01 13:19N 52°26' E 003°60'0 0.1
2016-May-01 12:31N 52°26' E 003°60'0 0.1
2016-May-01 11:31N 52°26' E 003°60'0 0.0
2016-May-01 10:28N 52°26' E 003°60'0 0.0
2016-May-01 09:31N 52°26' E 003°60'0 0.0
2016-May-01 08:31N 52°26' E 003°60'0 0.1
2016-May-01 07:31N 52°26' E 003°60'1 1.3
2016-May-01 06:33N 52°26' E 003°58'9 9.5
2016-May-01 05:33N 52°25' E 003°42'1610.8
2016-May-01 04:05N 52°16' E 003°20'5010.2
2016-Apr-30 23:12N 51°39' E 002°27'912.2
2016-Apr-30 22:28N 51°33' E 002°17'1213.5
2016-Apr-30 21:33N 51°21' E 002°09'1413.5
2016-Apr-30 20:33N 51°11' E 001°55'1414.4
2016-Apr-30 19:33N 51°02' E 001°37'1514.6
2016-Apr-30 18:31N 50°49' E 001°25'4213.5
2016-Apr-30 15:26N 50°25' E 000°32'1314.8
2016-Apr-30 14:33N 50°21' E 000°12'1514.9
2016-Apr-30 13:33N 50°18' W 000°11'1615.0
2016-Apr-30 12:29N 50°13' W 000°35'8913.7
2016-Apr-30 06:00N 49°48' W 002°48'2 4.3 070 / 111020.9 5.4 8.0 1.9
2016-Apr-30 05:33N 49°50' W 002°47'1412.3
2016-Apr-30 04:26N 49°46' W 003°07'1112.6
2016-Apr-30 03:33N 49°43' W 003°23'8313.2
2016-Apr-29 21:15N 48°56' W 005°10'1013.9
2016-Apr-29 20:33N 48°51' W 005°23'  

Dump ship's entire track history